sensor_id;sensor_type;location;lat;lon;timestamp;pressure;altitude;pressure_sealevel;temperature;humidity
7614;BME280;3848;42.016;23.098;2024-02-21T00:01:37;97826.50;;;6.13;100.00
7614;BME280;3848;42.016;23.098;2024-02-21T00:04:04;97818.72;;;6.03;100.00
7614;BME280;3848;42.016;23.098;2024-02-21T00:06:31;97825.56;;;6.07;100.00
7614;BME280;3848;42.016;23.098;2024-02-21T00:08:59;97822.19;;;6.07;100.00
7614;BME280;3848;42.016;23.098;2024-02-21T00:11:26;97820.50;;;6.06;100.00
7614;BME280;3848;42.016;23.098;2024-02-21T00:13:53;97814.50;;;6.02;100.00
7614;BME280;3848;42.016;23.098;2024-02-21T00:16:20;97820.38;;;6.01;100.00
7614;BME280;3848;42.016;23.098;2024-02-21T00:18:47;97824.56;;;6.01;100.00
7614;BME280;3848;42.016;23.098;2024-02-21T00:21:14;97820.47;;;6.04;100.00
7614;BME280;3848;42.016;23.098;2024-02-21T00:23:43;97822.06;;;6.02;100.00
7614;BME280;3848;42.016;23.098;2024-02-21T00:26:12;97762.44;;;5.65;100.00
7614;BME280;3848;42.016;23.098;2024-02-21T00:28:39;97818.63;;;5.99;100.00
7614;BME280;3848;42.016;23.098;2024-02-21T00:31:06;97813.53;;;5.96;100.00
7614;BME280;3848;42.016;23.098;2024-02-21T00:33:33;97817.72;;;5.95;100.00
7614;BME280;3848;42.016;23.098;2024-02-21T00:36:00;97801.66;;;5.90;100.00
7614;BME280;3848;42.016;23.098;2024-02-21T00:38:27;97811.06;;;5.99;100.00
7614;BME280;3848;42.016;23.098;2024-02-21T00:40:54;97815.25;;;5.98;100.00
7614;BME280;3848;42.016;23.098;2024-02-21T00:43:24;97800.91;;;5.94;100.00
7614;BME280;3848;42.016;23.098;2024-02-21T00:45:51;97811.94;;;6.01;100.00
7614;BME280;3848;42.016;23.098;2024-02-21T00:48:18;97816.91;;;5.96;100.00
7614;BME280;3848;42.016;23.098;2024-02-21T00:50:45;97741.91;;;5.48;100.00
7614;BME280;3848;42.016;23.098;2024-02-21T00:53:12;97805.13;;;5.95;100.00
7614;BME280;3848;42.016;23.098;2024-02-21T00:55:39;97808.56;;;5.99;100.00
7614;BME280;3848;42.016;23.098;2024-02-21T00:58:06;97815.41;;;6.04;100.00
7614;BME280;3848;42.016;23.098;2024-02-21T01:00:35;97799.31;;;5.99;100.00
7614;BME280;3848;42.016;23.098;2024-02-21T01:03:03;97811.28;;;6.08;100.00
7614;BME280;3848;42.016;23.098;2024-02-21T01:05:30;97809.56;;;6.05;100.00
7614;BME280;3848;42.016;23.098;2024-02-21T01:07:57;97801.88;;;6.01;100.00
7614;BME280;3848;42.016;23.098;2024-02-21T01:10:24;97804.66;;;6.13;100.00
7614;BME280;3848;42.016;23.098;2024-02-21T01:12:51;97792.75;;;6.06;100.00
7614;BME280;3848;42.016;23.098;2024-02-21T01:15:18;97802.88;;;6.09;100.00
7614;BME280;3848;42.016;23.098;2024-02-21T01:17:46;97797.69;;;6.03;100.00
7614;BME280;3848;42.016;23.098;2024-02-21T01:20:15;97783.88;;;5.86;100.00
7614;BME280;3848;42.016;23.098;2024-02-21T01:22:43;97803.19;;;5.85;100.00
7614;BME280;3848;42.016;23.098;2024-02-21T01:25:09;97798.13;;;5.84;100.00
7614;BME280;3848;42.016;23.098;2024-02-21T01:27:36;97796.31;;;5.78;100.00
7614;BME280;3848;42.016;23.098;2024-02-21T01:30:04;97792.97;;;5.79;100.00
7614;BME280;3848;42.016;23.098;2024-02-21T01:32:32;97803.81;;;5.75;100.00
7614;BME280;3848;42.016;23.098;2024-02-21T01:35:00;97785.94;;;5.64;100.00
7614;BME280;3848;42.016;23.098;2024-02-21T01:37:28;97784.97;;;5.59;100.00
7614;BME280;3848;42.016;23.098;2024-02-21T01:39:55;97783.94;;;5.49;100.00
7614;BME280;3848;42.016;23.098;2024-02-21T01:42:22;97778.97;;;5.54;100.00
7614;BME280;3848;42.016;23.098;2024-02-21T01:44:48;97782.44;;;5.59;100.00
7614;BME280;3848;42.016;23.098;2024-02-21T01:47:16;97784.16;;;5.60;100.00
7614;BME280;3848;42.016;23.098;2024-02-21T01:49:43;97780.03;;;5.62;100.00
7614;BME280;3848;42.016;23.098;2024-02-21T01:52:14;97774.09;;;5.62;100.00
7614;BME280;3848;42.016;23.098;2024-02-21T01:54:42;97774.81;;;5.56;100.00
7614;BME280;3848;42.016;23.098;2024-02-21T01:57:09;97778.13;;;5.54;100.00
7614;BME280;3848;42.016;23.098;2024-02-21T01:59:36;97772.91;;;5.44;100.00
7614;BME280;3848;42.016;23.098;2024-02-21T02:02:04;97762.75;;;5.41;100.00
7614;BME280;3848;42.016;23.098;2024-02-21T02:04:31;97778.09;;;5.52;100.00
7614;BME280;3848;42.016;23.098;2024-02-21T02:07:00;97770.63;;;5.57;100.00
7614;BME280;3848;42.016;23.098;2024-02-21T02:09:30;97764.63;;;5.50;100.00
7614;BME280;3848;42.016;23.098;2024-02-21T02:11:57;97773.94;;;5.54;100.00
7614;BME280;3848;42.016;23.098;2024-02-21T02:14:24;97771.47;;;5.56;100.00
7614;BME280;3848;42.016;23.098;2024-02-21T02:16:51;97766.59;;;5.63;100.00
7614;BME280;3848;42.016;23.098;2024-02-21T02:19:18;97765.81;;;5.66;100.00
7614;BME280;3848;42.016;23.098;2024-02-21T02:21:46;97742.09;;;5.58;100.00
7614;BME280;3848;42.016;23.098;2024-02-21T02:24:20;97760.91;;;5.73;100.00
7614;BME280;3848;42.016;23.098;2024-02-21T02:26:47;97761.00;;;5.78;100.00
7614;BME280;3848;42.016;23.098;2024-02-21T02:29:14;97761.88;;;5.80;100.00
7614;BME280;3848;42.016;23.098;2024-02-21T02:31:42;97762.81;;;5.84;100.00
7614;BME280;3848;42.016;23.098;2024-02-21T02:34:09;97753.66;;;5.87;100.00
7614;BME280;3848;42.016;23.098;2024-02-21T02:36:36;97761.22;;;5.87;100.00
7614;BME280;3848;42.016;23.098;2024-02-21T02:39:03;97754.63;;;5.92;100.00
7614;BME280;3848;42.016;23.098;2024-02-21T02:41:31;97752.91;;;5.91;100.00
7614;BME280;3848;42.016;23.098;2024-02-21T02:44:01;97757.22;;;5.97;100.00
7614;BME280;3848;42.016;23.098;2024-02-21T02:46:28;97748.91;;;6.02;100.00
7614;BME280;3848;42.016;23.098;2024-02-21T02:48:55;97759.25;;;6.13;100.00
7614;BME280;3848;42.016;23.098;2024-02-21T02:51:22;97749.94;;;6.10;100.00
7614;BME280;3848;42.016;23.098;2024-02-21T02:53:49;97746.69;;;6.18;100.00
7614;BME280;3848;42.016;23.098;2024-02-21T02:56:16;97745.00;;;6.17;100.00
7614;BME280;3848;42.016;23.098;2024-02-21T02:58:44;97748.53;;;6.25;100.00
7614;BME280;3848;42.016;23.098;2024-02-21T03:01:11;97735.88;;;6.23;100.00
7614;BME280;3848;42.016;23.098;2024-02-21T03:03:39;97750.25;;;6.26;100.00
7614;BME280;3848;42.016;23.098;2024-02-21T03:06:06;97743.53;;;6.26;100.00
7614;BME280;3848;42.016;23.098;2024-02-21T03:08:33;97748.59;;;6.28;100.00
7614;BME280;3848;42.016;23.098;2024-02-21T03:11:00;97751.94;;;6.27;100.00
7614;BME280;3848;42.016;23.098;2024-02-21T03:13:27;97753.59;;;6.25;100.00
7614;BME280;3848;42.016;23.098;2024-02-21T03:15:55;97744.22;;;6.19;100.00
7614;BME280;3848;42.016;23.098;2024-02-21T03:18:22;97746.66;;;6.15;100.00
7614;BME280;3848;42.016;23.098;2024-02-21T03:20:49;97760.13;;;6.17;100.00
7614;BME280;3848;42.016;23.098;2024-02-21T03:23:16;97755.03;;;6.14;100.00
7614;BME280;3848;42.016;23.098;2024-02-21T03:25:43;97764.19;;;6.08;100.00
7614;BME280;3848;42.016;23.098;2024-02-21T03:28:10;97753.09;;;6.00;100.00
7614;BME280;3848;42.016;23.098;2024-02-21T03:30:37;97763.19;;;6.02;100.00
7614;BME280;3848;42.016;23.098;2024-02-21T03:33:05;97764.81;;;5.98;100.00
7614;BME280;3848;42.016;23.098;2024-02-21T03:35:32;97727.16;;;5.65;100.00
7614;BME280;3848;42.016;23.098;2024-02-21T03:37:59;97761.91;;;5.81;100.00
7614;BME280;3848;42.016;23.098;2024-02-21T03:40:26;97765.84;;;5.67;100.00
7614;BME280;3848;42.016;23.098;2024-02-21T03:42:53;97768.88;;;5.53;100.00
7614;BME280;3848;42.016;23.098;2024-02-21T03:45:20;97763.53;;;5.40;100.00
7614;BME280;3848;42.016;23.098;2024-02-21T03:47:47;97766.00;;;5.37;100.00
7614;BME280;3848;42.016;23.098;2024-02-21T03:50:15;97771.78;;;5.33;100.00
7614;BME280;3848;42.016;23.098;2024-02-21T03:52:42;97775.84;;;5.27;100.00
7614;BME280;3848;42.016;23.098;2024-02-21T03:55:09;97781.63;;;5.21;100.00
7614;BME280;3848;42.016;23.098;2024-02-21T03:57:36;97779.59;;;5.08;100.00
7614;BME280;3848;42.016;23.098;2024-02-21T04:00:05;97785.34;;;5.02;100.00
7614;BME280;3848;42.016;23.098;2024-02-21T04:02:36;97784.66;;;5.08;100.00
7614;BME280;3848;42.016;23.098;2024-02-21T04:05:03;97782.09;;;5.06;100.00
7614;BME280;3848;42.016;23.098;2024-02-21T04:07:33;97767.69;;;5.01;100.00
7614;BME280;3848;42.016;23.098;2024-02-21T04:10:00;97781.31;;;5.09;100.00
7614;BME280;3848;42.016;23.098;2024-02-21T04:12:26;97777.91;;;5.07;100.00
7614;BME280;3848;42.016;23.098;2024-02-21T04:14:53;97777.06;;;5.06;100.00
7614;BME280;3848;42.016;23.098;2024-02-21T04:17:20;97780.56;;;5.13;100.00
7614;BME280;3848;42.016;23.098;2024-02-21T04:19:47;97777.03;;;5.05;100.00
7614;BME280;3848;42.016;23.098;2024-02-21T04:22:14;97767.59;;;4.98;100.00
7614;BME280;3848;42.016;23.098;2024-02-21T04:24:43;97770.03;;;4.95;100.00
7614;BME280;3848;42.016;23.098;2024-02-21T04:27:10;97775.03;;;4.93;100.00
7614;BME280;3848;42.016;23.098;2024-02-21T04:29:37;97767.41;;;4.90;100.00
7614;BME280;3848;42.016;23.098;2024-02-21T04:32:04;97769.09;;;4.89;100.00
7614;BME280;3848;42.016;23.098;2024-02-21T04:34:31;97780.84;;;4.90;100.00
7614;BME280;3848;42.016;23.098;2024-02-21T04:36:58;97777.31;;;4.82;100.00
7614;BME280;3848;42.016;23.098;2024-02-21T04:39:25;97778.19;;;4.84;100.00
7614;BME280;3848;42.016;23.098;2024-02-21T04:41:54;97788.34;;;4.87;100.00
7614;BME280;3848;42.016;23.098;2024-02-21T04:44:20;97764.66;;;4.79;100.00
7614;BME280;3848;42.016;23.098;2024-02-21T04:46:48;97785.16;;;4.95;100.00
7614;BME280;3848;42.016;23.098;2024-02-21T04:49:15;97786.00;;;4.95;100.00
7614;BME280;3848;42.016;23.098;2024-02-21T04:51:42;97781.00;;;4.97;100.00
7614;BME280;3848;42.016;23.098;2024-02-21T04:54:09;97784.38;;;4.97;100.00
7614;BME280;3848;42.016;23.098;2024-02-21T04:56:36;97765.69;;;4.87;100.00
7614;BME280;3848;42.016;23.098;2024-02-21T04:59:04;97778.56;;;5.00;100.00
7614;BME280;3848;42.016;23.098;2024-02-21T05:01:31;97723.31;;;4.71;100.00
7614;BME280;3848;42.016;23.098;2024-02-21T05:03:58;97783.69;;;5.03;100.00
7614;BME280;3848;42.016;23.098;2024-02-21T05:06:25;97759.78;;;4.87;100.00
7614;BME280;3848;42.016;23.098;2024-02-21T05:08:52;97782.94;;;5.07;100.00
7614;BME280;3848;42.016;23.098;2024-02-21T05:11:20;97787.97;;;5.07;100.00
7614;BME280;3848;42.016;23.098;2024-02-21T05:13:47;97786.38;;;5.10;100.00
7614;BME280;3848;42.016;23.098;2024-02-21T05:16:16;97776.09;;;5.01;100.00
7614;BME280;3848;42.016;23.098;2024-02-21T05:18:45;97773.63;;;5.03;100.00
7614;BME280;3848;42.016;23.098;2024-02-21T05:21:12;97780.03;;;4.92;100.00
7614;BME280;3848;42.016;23.098;2024-02-21T05:23:39;97791.53;;;4.80;100.00
7614;BME280;3848;42.016;23.098;2024-02-21T05:26:06;97793.69;;;4.67;100.00
7614;BME280;3848;42.016;23.098;2024-02-21T05:28:33;97792.31;;;4.46;100.00
7614;BME280;3848;42.016;23.098;2024-02-21T05:31:00;97801.25;;;4.37;100.00
7614;BME280;3848;42.016;23.098;2024-02-21T05:33:29;97789.06;;;4.19;100.00
7614;BME280;3848;42.016;23.098;2024-02-21T05:35:56;97798.13;;;4.14;100.00
7614;BME280;3848;42.016;23.098;2024-02-21T05:38:23;97792.16;;;4.10;100.00
7614;BME280;3848;42.016;23.098;2024-02-21T05:40:50;97802.50;;;4.19;100.00
7614;BME280;3848;42.016;23.098;2024-02-21T05:43:17;97797.19;;;4.10;100.00
7614;BME280;3848;42.016;23.098;2024-02-21T05:45:44;97778.63;;;4.05;100.00
7614;BME280;3848;42.016;23.098;2024-02-21T05:48:12;97807.69;;;4.25;100.00
7614;BME280;3848;42.016;23.098;2024-02-21T05:50:43;97811.00;;;4.24;100.00
7614;BME280;3848;42.016;23.098;2024-02-21T05:53:11;97819.09;;;4.14;100.00
7614;BME280;3848;42.016;23.098;2024-02-21T05:55:39;97822.28;;;4.09;100.00
7614;BME280;3848;42.016;23.098;2024-02-21T05:58:06;97823.44;;;4.18;100.00
7614;BME280;3848;42.016;23.098;2024-02-21T06:00:36;97818.50;;;4.23;100.00
7614;BME280;3848;42.016;23.098;2024-02-21T06:03:04;97832.91;;;4.28;100.00
7614;BME280;3848;42.016;23.098;2024-02-21T06:05:31;97833.56;;;4.21;100.00
7614;BME280;3848;42.016;23.098;2024-02-21T06:07:59;97793.94;;;4.14;100.00
7614;BME280;3848;42.016;23.098;2024-02-21T06:10:26;97829.00;;;4.38;100.00
7614;BME280;3848;42.016;23.098;2024-02-21T06:12:53;97833.53;;;4.51;100.00
7614;BME280;3848;42.016;23.098;2024-02-21T06:15:20;97837.13;;;4.59;100.00
7614;BME280;3848;42.016;23.098;2024-02-21T06:17:47;97834.63;;;4.59;100.00
7614;BME280;3848;42.016;23.098;2024-02-21T06:20:16;97844.19;;;4.73;100.00
7614;BME280;3848;42.016;23.098;2024-02-21T06:22:43;97841.78;;;4.77;100.00
7614;BME280;3848;42.016;23.098;2024-02-21T06:25:11;97842.78;;;4.82;100.00
7614;BME280;3848;42.016;23.098;2024-02-21T06:27:38;97849.66;;;4.89;100.00
7614;BME280;3848;42.016;23.098;2024-02-21T06:30:07;97856.34;;;4.89;100.00
7614;BME280;3848;42.016;23.098;2024-02-21T06:32:34;97845.63;;;4.96;100.00
7614;BME280;3848;42.016;23.098;2024-02-21T06:35:01;97803.09;;;4.74;100.00
7614;BME280;3848;42.016;23.098;2024-02-21T06:37:28;97850.91;;;5.05;100.00
7614;BME280;3848;42.016;23.098;2024-02-21T06:39:55;97857.72;;;5.09;100.00
7614;BME280;3848;42.016;23.098;2024-02-21T06:42:25;97854.53;;;5.16;100.00
7614;BME280;3848;42.016;23.098;2024-02-21T06:44:52;97857.81;;;5.14;100.00
7614;BME280;3848;42.016;23.098;2024-02-21T06:47:21;97856.44;;;5.25;100.00
7614;BME280;3848;42.016;23.098;2024-02-21T06:49:49;97865.09;;;5.36;100.00
7614;BME280;3848;42.016;23.098;2024-02-21T06:52:17;97863.56;;;5.41;100.00
7614;BME280;3848;42.016;23.098;2024-02-21T06:54:46;97864.50;;;5.46;100.00
7614;BME280;3848;42.016;23.098;2024-02-21T06:57:14;97864.66;;;5.53;100.00
7614;BME280;3848;42.016;23.098;2024-02-21T06:59:44;97849.41;;;5.46;100.00
7614;BME280;3848;42.016;23.098;2024-02-21T07:02:12;97856.41;;;5.60;100.00
7614;BME280;3848;42.016;23.098;2024-02-21T07:04:39;97863.25;;;5.64;100.00
7614;BME280;3848;42.016;23.098;2024-02-21T07:07:06;97859.75;;;5.59;100.00
7614;BME280;3848;42.016;23.098;2024-02-21T07:09:33;97842.69;;;5.47;100.00
7614;BME280;3848;42.016;23.098;2024-02-21T07:12:00;97863.72;;;5.49;100.00
7614;BME280;3848;42.016;23.098;2024-02-21T07:14:29;97869.97;;;5.29;100.00
7614;BME280;3848;42.016;23.098;2024-02-21T07:16:58;97866.19;;;5.13;100.00
7614;BME280;3848;42.016;23.098;2024-02-21T07:19:25;97863.88;;;5.20;100.00
7614;BME280;3848;42.016;23.098;2024-02-21T07:21:54;97875.13;;;5.35;100.00
7614;BME280;3848;42.016;23.098;2024-02-21T07:24:25;97872.06;;;5.12;100.00
7614;BME280;3848;42.016;23.098;2024-02-21T07:26:52;97873.91;;;5.19;100.00
7614;BME280;3848;42.016;23.098;2024-02-21T07:29:19;97871.97;;;5.09;100.00
7614;BME280;3848;42.016;23.098;2024-02-21T07:31:48;97874.53;;;5.10;100.00
7614;BME280;3848;42.016;23.098;2024-02-21T07:34:18;97870.41;;;5.14;100.00
7614;BME280;3848;42.016;23.098;2024-02-21T07:36:45;97867.63;;;5.36;100.00
7614;BME280;3848;42.016;23.098;2024-02-21T07:39:12;97875.59;;;5.53;100.00
7614;BME280;3848;42.016;23.098;2024-02-21T07:41:39;97850.72;;;5.32;100.00
7614;BME280;3848;42.016;23.098;2024-02-21T07:44:08;97868.00;;;5.51;100.00
7614;BME280;3848;42.016;23.098;2024-02-21T07:46:35;97865.66;;;5.61;100.00
7614;BME280;3848;42.016;23.098;2024-02-21T07:49:02;97871.41;;;5.90;100.00
7614;BME280;3848;42.016;23.098;2024-02-21T07:51:30;97865.72;;;5.98;100.00
7614;BME280;3848;42.016;23.098;2024-02-21T07:53:57;97868.41;;;6.06;100.00
7614;BME280;3848;42.016;23.098;2024-02-21T07:56:27;97859.47;;;6.22;100.00
7614;BME280;3848;42.016;23.098;2024-02-21T07:58:54;97868.19;;;6.36;100.00
7614;BME280;3848;42.016;23.098;2024-02-21T08:01:21;97858.34;;;6.48;100.00
7614;BME280;3848;42.016;23.098;2024-02-21T08:03:48;97854.25;;;6.53;100.00
7614;BME280;3848;42.016;23.098;2024-02-21T08:06:15;97861.06;;;6.59;100.00
7614;BME280;3848;42.016;23.098;2024-02-21T08:08:44;97859.63;;;6.70;100.00
7614;BME280;3848;42.016;23.098;2024-02-21T08:11:11;97848.81;;;6.77;100.00
7614;BME280;3848;42.016;23.098;2024-02-21T08:13:38;97825.16;;;6.73;100.00
7614;BME280;3848;42.016;23.098;2024-02-21T08:16:05;97858.41;;;6.96;100.00
7614;BME280;3848;42.016;23.098;2024-02-21T08:18:32;97852.66;;;7.05;100.00
7614;BME280;3848;42.016;23.098;2024-02-21T08:21:03;97847.72;;;7.11;100.00
7614;BME280;3848;42.016;23.098;2024-02-21T08:23:30;97850.72;;;7.39;100.00
7614;BME280;3848;42.016;23.098;2024-02-21T08:25:58;97846.00;;;7.61;100.00
7614;BME280;3848;42.016;23.098;2024-02-21T08:28:25;97848.81;;;7.81;100.00
7614;BME280;3848;42.016;23.098;2024-02-21T08:30:52;97831.84;;;7.73;100.00
7614;BME280;3848;42.016;23.098;2024-02-21T08:33:19;97842.25;;;7.92;100.00
7614;BME280;3848;42.016;23.098;2024-02-21T08:35:50;97841.41;;;7.92;100.00
7614;BME280;3848;42.016;23.098;2024-02-21T08:38:17;97837.22;;;7.95;100.00
7614;BME280;3848;42.016;23.098;2024-02-21T08:40:44;97825.38;;;7.91;100.00
7614;BME280;3848;42.016;23.098;2024-02-21T08:43:12;97840.84;;;8.13;100.00
7614;BME280;3848;42.016;23.098;2024-02-21T08:45:40;97835.09;;;8.26;100.00
7614;BME280;3848;42.016;23.098;2024-02-21T08:48:07;97835.97;;;8.30;100.00
7614;BME280;3848;42.016;23.098;2024-02-21T08:50:35;97831.09;;;8.42;100.00
7614;BME280;3848;42.016;23.098;2024-02-21T08:53:03;97827.88;;;8.55;100.00
7614;BME280;3848;42.016;23.098;2024-02-21T08:55:30;97835.44;;;8.53;100.00
7614;BME280;3848;42.016;23.098;2024-02-21T08:57:57;97834.97;;;8.88;100.00
7614;BME280;3848;42.016;23.098;2024-02-21T09:00:26;97829.09;;;8.92;100.00
7614;BME280;3848;42.016;23.098;2024-02-21T09:02:54;97825.81;;;9.02;100.00
7614;BME280;3848;42.016;23.098;2024-02-21T09:05:22;97832.75;;;9.20;100.00
7614;BME280;3848;42.016;23.098;2024-02-21T09:07:50;97832.22;;;9.59;100.00
7614;BME280;3848;42.016;23.098;2024-02-21T09:10:17;97779.69;;;9.49;100.00
7614;BME280;3848;42.016;23.098;2024-02-21T09:12:44;97823.06;;;9.83;100.00
7614;BME280;3848;42.016;23.098;2024-02-21T09:15:11;97822.34;;;10.11;100.00
7614;BME280;3848;42.016;23.098;2024-02-21T09:17:40;97822.50;;;10.37;100.00
7614;BME280;3848;42.016;23.098;2024-02-21T09:20:08;97820.91;;;10.62;100.00
7614;BME280;3848;42.016;23.098;2024-02-21T09:22:37;97807.38;;;10.81;100.00
7614;BME280;3848;42.016;23.098;2024-02-21T09:25:06;97815.88;;;10.94;100.00
7614;BME280;3848;42.016;23.098;2024-02-21T09:27:33;97817.59;;;11.22;100.00
7614;BME280;3848;42.016;23.098;2024-02-21T09:30:00;97819.31;;;11.31;100.00
7614;BME280;3848;42.016;23.098;2024-02-21T09:32:29;97826.91;;;11.43;100.00
7614;BME280;3848;42.016;23.098;2024-02-21T09:34:59;97800.63;;;11.15;99.64
7614;BME280;3848;42.016;23.098;2024-02-21T09:37:26;97756.56;;;11.06;98.19
7614;BME280;3848;42.016;23.098;2024-02-21T09:39:53;97821.00;;;11.26;100.00
7614;BME280;3848;42.016;23.098;2024-02-21T09:42:21;97804.91;;;11.45;100.00
7614;BME280;3848;42.016;23.098;2024-02-21T09:44:48;97812.47;;;11.85;100.00
7614;BME280;3848;42.016;23.098;2024-02-21T09:47:21;97816.63;;;12.21;100.00
7614;BME280;3848;42.016;23.098;2024-02-21T09:49:49;97807.06;;;12.67;95.15
7614;BME280;3848;42.016;23.098;2024-02-21T09:52:19;97799.34;;;12.82;81.60
7614;BME280;3848;42.016;23.098;2024-02-21T09:54:47;97803.56;;;12.91;80.66
7614;BME280;3848;42.016;23.098;2024-02-21T09:57:15;97791.56;;;13.01;78.47
7614;BME280;3848;42.016;23.098;2024-02-21T09:59:43;97795.91;;;12.88;75.54
7614;BME280;3848;42.016;23.098;2024-02-21T10:02:11;97794.19;;;12.92;76.24
7614;BME280;3848;42.016;23.098;2024-02-21T10:04:40;97786.44;;;13.05;73.35
7614;BME280;3848;42.016;23.098;2024-02-21T10:07:07;97783.00;;;13.08;72.46
7614;BME280;3848;42.016;23.098;2024-02-21T10:09:36;97771.41;;;12.64;70.05
7614;BME280;3848;42.016;23.098;2024-02-21T10:12:09;97791.00;;;12.58;69.46
7614;BME280;3848;42.016;23.098;2024-02-21T10:14:37;97783.34;;;12.58;69.18
7614;BME280;3848;42.016;23.098;2024-02-21T10:17:04;97775.69;;;12.58;67.95
7614;BME280;3848;42.016;23.098;2024-02-21T10:19:34;97756.06;;;12.67;68.47
7614;BME280;3848;42.016;23.098;2024-02-21T10:22:04;97768.41;;;13.28;66.78
7614;BME280;3848;42.016;23.098;2024-02-21T10:24:33;97758.69;;;13.68;65.76
7614;BME280;3848;42.016;23.098;2024-02-21T10:27:05;97750.94;;;13.78;62.78
7614;BME280;3848;42.016;23.098;2024-02-21T10:29:35;97726.88;;;13.97;61.90
7614;BME280;3848;42.016;23.098;2024-02-21T10:32:06;97726.81;;;14.66;61.76
7614;BME280;3848;42.016;23.098;2024-02-21T10:34:34;97734.94;;;15.45;61.26
7614;BME280;3848;42.016;23.098;2024-02-21T10:37:02;97718.97;;;16.20;57.19
7614;BME280;3848;42.016;23.098;2024-02-21T10:39:31;97722.28;;;16.64;53.64
7614;BME280;3848;42.016;23.098;2024-02-21T10:42:00;97707.13;;;16.55;51.31
7614;BME280;3848;42.016;23.098;2024-02-21T10:44:31;97659.16;;;16.20;54.50
7614;BME280;3848;42.016;23.098;2024-02-21T10:47:00;97578.44;;;15.57;52.65
7614;BME280;3848;42.016;23.098;2024-02-21T10:49:33;97662.75;;;16.11;52.70
7614;BME280;3848;42.016;23.098;2024-02-21T10:52:09;97699.97;;;16.30;50.68
7614;BME280;3848;42.016;23.098;2024-02-21T10:54:44;97694.78;;;16.72;53.72
7614;BME280;3848;42.016;23.098;2024-02-21T10:57:14;97701.97;;;16.93;50.95
7614;BME280;3848;42.016;23.098;2024-02-21T10:59:44;97695.66;;;17.39;49.98
7614;BME280;3848;42.016;23.098;2024-02-21T11:02:11;97684.91;;;17.25;49.69
7614;BME280;3848;42.016;23.098;2024-02-21T11:04:39;97683.75;;;17.02;51.02
7614;BME280;3848;42.016;23.098;2024-02-21T11:07:07;97637.91;;;16.89;50.40
7614;BME280;3848;42.016;23.098;2024-02-21T11:09:34;97683.06;;;17.30;49.44
7614;BME280;3848;42.016;23.098;2024-02-21T11:12:03;97664.34;;;17.25;47.67
7614;BME280;3848;42.016;23.098;2024-02-21T11:14:31;97672.44;;;17.11;49.26
7614;BME280;3848;42.016;23.098;2024-02-21T11:17:03;97661.22;;;17.14;48.29
7614;BME280;3848;42.016;23.098;2024-02-21T11:19:30;97656.50;;;17.31;50.17
7614;BME280;3848;42.016;23.098;2024-02-21T11:21:58;97664.25;;;17.28;48.74
7614;BME280;3848;42.016;23.098;2024-02-21T11:24:27;97661.72;;;17.59;48.99
7614;BME280;3848;42.016;23.098;2024-02-21T11:26:55;97640.03;;;17.69;48.93
7614;BME280;3848;42.016;23.098;2024-02-21T11:29:25;97653.16;;;17.91;47.71
7614;BME280;3848;42.016;23.098;2024-02-21T11:31:53;97649.50;;;17.98;46.86
7614;BME280;3848;42.016;23.098;2024-02-21T11:34:21;97648.66;;;17.97;46.60
7614;BME280;3848;42.016;23.098;2024-02-21T11:36:49;97638.38;;;17.66;46.91
7614;BME280;3848;42.016;23.098;2024-02-21T11:39:20;97639.66;;;18.12;46.83
7614;BME280;3848;42.016;23.098;2024-02-21T11:42:02;97636.47;;;18.60;45.16
7614;BME280;3848;42.016;23.098;2024-02-21T11:44:29;97627.22;;;17.98;45.10
7614;BME280;3848;42.016;23.098;2024-02-21T11:46:56;97612.56;;;17.73;45.95
7614;BME280;3848;42.016;23.098;2024-02-21T11:49:28;97635.06;;;17.63;47.63
7614;BME280;3848;42.016;23.098;2024-02-21T11:51:58;97618.59;;;18.00;44.60
7614;BME280;3848;42.016;23.098;2024-02-21T11:54:26;97587.03;;;18.22;46.65
7614;BME280;3848;42.016;23.098;2024-02-21T11:56:54;97629.22;;;18.17;46.01
7614;BME280;3848;42.016;23.098;2024-02-21T11:59:22;97607.19;;;17.48;46.39
7614;BME280;3848;42.016;23.098;2024-02-21T12:01:50;97624.81;;;16.98;48.30
7614;BME280;3848;42.016;23.098;2024-02-21T12:04:20;97620.09;;;16.45;46.97
7614;BME280;3848;42.016;23.098;2024-02-21T12:06:52;97613.53;;;15.95;48.14
7614;BME280;3848;42.016;23.098;2024-02-21T12:09:20;97608.34;;;15.56;49.69
7614;BME280;3848;42.016;23.098;2024-02-21T12:11:57;97599.69;;;15.17;49.36
7614;BME280;3848;42.016;23.098;2024-02-21T12:14:25;97603.22;;;14.64;50.28
7614;BME280;3848;42.016;23.098;2024-02-21T12:16:52;97594.94;;;14.50;51.37
7614;BME280;3848;42.016;23.098;2024-02-21T12:19:19;97597.56;;;14.45;51.28
7614;BME280;3848;42.016;23.098;2024-02-21T12:21:48;97589.47;;;14.70;49.44
7614;BME280;3848;42.016;23.098;2024-02-21T12:24:22;97585.06;;;14.78;49.12
7614;BME280;3848;42.016;23.098;2024-02-21T12:26:51;97590.41;;;15.13;47.60
7614;BME280;3848;42.016;23.098;2024-02-21T12:29:18;97535.66;;;15.19;47.01
7614;BME280;3848;42.016;23.098;2024-02-21T12:31:45;97573.28;;;15.60;48.54
7614;BME280;3848;42.016;23.098;2024-02-21T12:34:13;97560.47;;;15.60;48.78
7614;BME280;3848;42.016;23.098;2024-02-21T12:36:41;97576.91;;;15.90;50.44
7614;BME280;3848;42.016;23.098;2024-02-21T12:39:09;97571.56;;;15.99;50.78
7614;BME280;3848;42.016;23.098;2024-02-21T12:41:38;97563.38;;;15.85;48.54
7614;BME280;3848;42.016;23.098;2024-02-21T12:44:06;97575.59;;;15.72;49.16
7614;BME280;3848;42.016;23.098;2024-02-21T12:46:33;97575.13;;;15.52;49.03
7614;BME280;3848;42.016;23.098;2024-02-21T12:49:00;97567.09;;;15.27;50.09
7614;BME280;3848;42.016;23.098;2024-02-21T12:51:28;97559.28;;;14.90;50.07
7614;BME280;3848;42.016;23.098;2024-02-21T12:53:55;97553.63;;;14.71;49.85
7614;BME280;3848;42.016;23.098;2024-02-21T12:56:22;97524.44;;;14.32;50.64
7614;BME280;3848;42.016;23.098;2024-02-21T12:58:51;97561.84;;;14.39;50.73
7614;BME280;3848;42.016;23.098;2024-02-21T13:01:18;97566.28;;;14.26;51.11
7614;BME280;3848;42.016;23.098;2024-02-21T13:03:45;97556.00;;;14.29;51.51
7614;BME280;3848;42.016;23.098;2024-02-21T13:06:12;97546.16;;;14.60;48.72
7614;BME280;3848;42.016;23.098;2024-02-21T13:08:40;97542.88;;;15.00;50.04
7614;BME280;3848;42.016;23.098;2024-02-21T13:11:07;97549.31;;;15.19;46.58
7614;BME280;3848;42.016;23.098;2024-02-21T13:13:34;97533.25;;;15.13;46.79